グアム の空港の天気 - METARとTAF

グアム国際空港 ( PGUM / GUM ) - グアム ハガニア
飛行場実況気象(Metar)
観測時間02/18 00:54 ChST (02/17 14:54 UTC)
風向・風速北東 6m/s
視程10km以上
天気現象
なし
気温25℃
湿度82%
気圧1015.5hPa
METARPGUM 171454Z 05011KT 10SM CLR 25/22 A3001 RMK AO2 SLP155 T02500217 58003
過去の天気等 Google飛行場航空写真 Wunderground天気予報

過去48時間のMETAR

飛行場予報(TAF)
発表時間: 2/17 21:35 ChST (2/17 11:35 UTC)
予報対象時間: 17日22時 ChST ~ 19日4時 ChST
風向・風速北東 6m/s
視程10km以上
少しの雲 雲底高度 760m
少しの雲 雲底高度 1520m
18日9時 ChST から
風向・風速北東 9m/s
視程10km以上
天気現象周辺でしゅう雨
全天の4割程度の雲 雲底高度 760m
全天の4割程度の雲 雲底高度 1520m
PGUM 171135Z 1712/1818 05011KT P6SM FEW025 FEW050
FM172300 05018KT P6SM VCSH SCT025 SCT050